Pagrindinis puslapis
METAR-TAF:

METAR-TAF

Oro uostai :

Sogndalis, Norvegija

platuma: 61-09N, ilguma: 007-08E, Aukštis: 49 m

Dabartinis oras

Ataskaita buvo paskelbta 12 minutes, ne 14:20 UTC
Vėjas 5 kt iš Vakarų
Temperatūra 2°C
Drėgmė 75%
Slėgis 1001 hPa
Matomumas 10 km arba daugiau
Mažai debesys
Su prošvaistėmis ne aukštis 4000 ft

METAR: ENSG 191420Z 26005KT 9999 FEW/// BKN040 02/M02 Q1001 RMK WIND 3806FT 21004KT

Laikas: 15:32 (14:32 UTC)


TAF: trūkstamas

Orai ataskaitas ir orų prognozės (METAR, TAF).

turimą stotys yra geltonos ir raudonos taškus žemėlapyje.

Perkelti pele per norėdami pamatyti stoties vardą.

Tada spustelėkite, norėdami matyti oro stebėjimo ir prognozės.

Norėdami pakeisti žemėlapį: spustelėkite ant žalios mygtukų su juodo kryžiaus žemyn,; žalią mygtuką su brūkšneliu, jei norite nutolinti; arba žalių rodyklių gretimoms žemėlapius.


METAR-TAF: